Time;durP1;ratioP1;P1;durP2;ratioP2;P2;SDS_P1;SDS_P2;PMS_P1;PMS_P2;Temp;Humidity;BMP_temperature;BMP_pressure;BME280_temperature;BME280_humidity;BME280_pressure;Samples;Min_cycle;Max_cycle;Signal;HPM_P1;HPM_P2
2023/08/11 00:02:22;;;;;;;;;;;;;;;20.88;56.92;101653.72;4999537;28;4159;-67
2023/08/11 00:04:52;;;;;;;;;;;;;;;20.89;56.80;101654.47;4998246;28;4385;-67
2023/08/11 00:07:18;;;;;;;;;;;;;;;20.87;56.75;101646.47;4997426;28;4152;-67
2023/08/11 00:09:44;;;;;;;;;;;;;;;20.88;56.70;101652.97;5013583;28;4313;-67
2023/08/11 00:12:11;;;;;;;;;;;;;;;20.87;56.67;101660.13;5015683;28;4521;-67
2023/08/11 00:14:37;;;;;;;;;;;;;;;20.87;56.91;101654.38;5000045;28;4019;-67
2023/08/11 00:17:05;;;;;;;;;;;;;;;20.87;56.85;101657.25;5002289;28;4334;-67
2023/08/11 00:19:31;;;;;;;;;;;;;;;20.86;56.77;101656.47;5002005;28;4144;-67
2023/08/11 00:21:58;;;;;;;;;;;;;;;20.87;56.84;101657.25;4997424;28;4797;-67
2023/08/11 00:24:24;;;;;;;;;;;;;;;20.87;56.89;101663.75;5000187;28;4127;-67
2023/08/11 00:26:51;;;;;;;;;;;;;;;20.86;56.59;101655.75;4997955;28;4169;-67
2023/08/11 00:29:17;;;;;;;;;;;;;;;20.86;56.68;101650.72;5012989;28;4051;-67
2023/08/11 00:31:45;;;;;;;;;;;;;;;20.85;56.68;101655.00;5001279;28;4275;-67
2023/08/11 00:34:11;;;;;;;;;;;;;;;20.86;56.90;101656.47;5004076;28;4464;-67
2023/08/11 00:36:38;;;;;;;;;;;;;;;20.86;56.83;101653.59;5017788;28;4616;-66
2023/08/11 00:39:04;;;;;;;;;;;;;;;20.86;56.62;101662.25;4995544;28;4463;-66
2023/08/11 00:41:32;;;;;;;;;;;;;;;20.86;56.78;101655.75;4999177;28;4292;-66
2023/08/11 00:43:59;;;;;;;;;;;;;;;20.85;56.83;101663.63;5006586;28;4025;-66
2023/08/11 00:46:25;;;;;;;;;;;;;;;20.85;56.55;101663.63;5002302;28;4055;-66
2023/08/11 00:48:51;;;;;;;;;;;;;;;20.85;56.90;101662.88;4997815;28;4018;-66
2023/08/11 00:51:18;;;;;;;;;;;;;;;20.85;56.81;101657.88;5014278;28;4316;-66
2023/08/11 00:53:45;;;;;;;;;;;;;;;20.85;56.81;101660.75;4996656;28;4138;-66
2023/08/11 00:56:12;;;;;;;;;;;;;;;20.85;56.60;101662.88;4981620;28;4304;-66
2023/08/11 00:58:38;;;;;;;;;;;;;;;20.85;56.69;101678.03;5000042;28;4050;-66
2023/08/11 01:01:05;;;;;;;;;;;;;;;20.84;56.66;101676.50;5003587;28;4267;-66
2023/08/11 01:03:31;;;;;;;;;;;;;;;20.84;56.64;101670.75;4997333;28;5428;-66
2023/08/11 01:06:18;;;;;;;;;;;;;;;20.83;56.76;101677.91;4998195;28;4095;-66
2023/08/11 01:08:49;;;;;;;;;;;;;;;20.84;56.60;101672.88;4998035;28;4033;-66
2023/08/11 01:11:19;;;;;;;;;;;;;;;20.83;56.86;101671.41;5004421;28;4074;-66
2023/08/11 01:13:48;;;;;;;;;;;;;;;20.83;56.87;101671.41;4996372;28;4241;-66
2023/08/11 01:16:14;;;;;;;;;;;;;;;20.83;56.91;101677.91;5005319;28;4017;-67
2023/08/11 01:18:42;;;;;;;;;;;;;;;20.83;56.66;101668.53;4995630;28;4299;-65
2023/08/11 01:21:10;;;;;;;;;;;;;;;20.83;56.63;101675.03;5002092;28;4114;-66
2023/08/11 01:23:36;;;;;;;;;;;;;;;20.82;56.75;101669.91;4999478;28;4389;-66
2023/08/11 01:26:03;;;;;;;;;;;;;;;20.82;56.70;101673.53;5002428;28;4114;-66
2023/08/11 01:28:29;;;;;;;;;;;;;;;20.81;56.75;101666.28;4985422;28;4107;-66
2023/08/11 01:30:56;;;;;;;;;;;;;;;20.83;56.86;101668.53;4989400;28;4162;-66
2023/08/11 01:33:22;;;;;;;;;;;;;;;20.81;56.80;101662.66;4995849;28;4232;-66
2023/08/11 01:35:48;;;;;;;;;;;;;;;20.82;56.60;101658.38;4996614;28;4117;-66
2023/08/11 01:38:15;;;;;;;;;;;;;;;20.82;56.57;101659.16;5012022;28;4251;-66
2023/08/11 01:40:42;;;;;;;;;;;;;;;20.82;56.90;101659.16;4997744;28;4253;-66
2023/08/11 01:43:10;;;;;;;;;;;;;;;20.81;56.64;101654.75;4997664;28;4166;-65
2023/08/11 01:45:37;;;;;;;;;;;;;;;20.82;56.58;101658.38;4998664;28;4241;-66
2023/08/11 01:48:04;;;;;;;;;;;;;;;20.81;56.74;101665.53;5007736;28;4080;-67
2023/08/11 01:50:31;;;;;;;;;;;;;;;20.80;56.79;101653.28;5004896;28;4096;-67
2023/08/11 01:52:58;;;;;;;;;;;;;;;20.81;56.57;101672.03;4994879;28;4040;-66
2023/08/11 01:55:24;;;;;;;;;;;;;;;20.81;56.83;101665.53;5004111;28;4100;-66
2023/08/11 01:57:52;;;;;;;;;;;;;;;20.80;56.60;101667.66;4995932;28;4186;-66
2023/08/11 02:00:25;;;;;;;;;;;;;;;20.80;56.42;101682.06;4996718;28;4111;-66
2023/08/11 02:02:52;;;;;;;;;;;;;;;20.80;56.77;101684.94;5000646;28;4263;-71
2023/08/11 02:05:19;;;;;;;;;;;;;;;20.79;56.84;101669.03;4996487;28;4320;-59
2023/08/11 02:07:45;;;;;;;;;;;;;;;20.79;56.71;101662.53;4995314;28;4117;-62
2023/08/11 02:10:12;;;;;;;;;;;;;;;20.79;56.54;101669.03;4997603;28;5510;-62
2023/08/11 02:12:38;;;;;;;;;;;;;;;20.79;56.70;101663.28;4997698;28;4200;-62
2023/08/11 02:15:05;;;;;;;;;;;;;;;20.79;56.77;101665.41;4996220;28;4022;-62
2023/08/11 02:17:32;;;;;;;;;;;;;;;20.78;56.76;101664.66;5003018;28;4222;-63
2023/08/11 02:19:59;;;;;;;;;;;;;;;20.78;56.55;101661.03;5012591;28;4086;-63
2023/08/11 02:22:26;;;;;;;;;;;;;;;20.78;56.56;101656.03;4998412;28;4124;-62
2023/08/11 02:24:53;;;;;;;;;;;;;;;20.78;56.55;101663.94;5001023;28;4073;-62
2023/08/11 02:27:20;;;;;;;;;;;;;;;20.78;56.61;101650.28;4995405;28;4179;-62
2023/08/11 02:29:46;;;;;;;;;;;;;;;20.78;56.58;101656.03;4995565;28;4408;-62
2023/08/11 02:32:13;;;;;;;;;;;;;;;20.78;56.72;101655.28;4990295;28;4399;-62
2023/08/11 02:34:41;;;;;;;;;;;;;;;20.78;56.75;101666.81;4991853;28;4106;-62
2023/08/11 02:37:08;;;;;;;;;;;;;;;20.76;56.58;101661.66;4995265;28;3947;-62
2023/08/11 02:39:35;;;;;;;;;;;;;;;20.76;56.57;101653.03;5008795;28;4045;-62
2023/08/11 02:42:05;;;;;;;;;;;;;;;20.77;56.73;101659.53;4995654;28;5219;-62
2023/08/11 02:44:32;;;;;;;;;;;;;;;20.77;56.72;101666.03;5015425;28;4106;-62
2023/08/11 02:46:59;;;;;;;;;;;;;;;20.76;56.74;101667.44;4999777;28;3976;-62
2023/08/11 02:49:25;;;;;;;;;;;;;;;20.77;56.52;101666.03;4999671;28;4105;-63
2023/08/11 02:51:51;;;;;;;;;;;;;;;20.76;56.59;101658.78;4999667;28;4065;-62
2023/08/11 02:54:19;;;;;;;;;;;;;;;20.76;56.78;101663.81;4997187;28;4207;-62
2023/08/11 02:56:46;;;;;;;;;;;;;;;20.76;56.69;101663.81;4998911;28;5206;-62
2023/08/11 02:59:13;;;;;;;;;;;;;;;20.75;56.58;101657.28;4998556;28;4053;-62
2023/08/11 03:01:39;;;;;;;;;;;;;;;20.75;56.81;101657.28;4997884;28;4228;-62
2023/08/11 03:04:06;;;;;;;;;;;;;;;20.75;56.84;101648.66;5000538;28;4071;-62
2023/08/11 03:06:32;;;;;;;;;;;;;;;20.74;56.56;101655.78;5013850;28;4060;-62
2023/08/11 03:08:59;;;;;;;;;;;;;;;20.75;56.52;101654.41;4996851;28;4364;-62
2023/08/11 03:11:26;;;;;;;;;;;;;;;20.74;56.78;101655.78;4998311;28;4401;-62
2023/08/11 03:13:54;;;;;;;;;;;;;;;20.74;56.82;101650.03;4998324;28;4153;-62
2023/08/11 03:16:20;;;;;;;;;;;;;;;20.74;56.89;101646.41;5007904;28;4122;-62
2023/08/11 03:18:47;;;;;;;;;;;;;;;20.74;56.79;101632.78;4998355;28;4575;-62
2023/08/11 03:21:13;;;;;;;;;;;;;;;20.74;56.78;101643.53;4996048;28;4443;-62
2023/08/11 03:23:46;;;;;;;;;;;;;;;20.73;56.79;101642.78;5011271;28;4087;-62
2023/08/11 03:26:13;;;;;;;;;;;;;;;20.74;56.73;101638.53;4997093;28;4067;-62
2023/08/11 03:28:40;;;;;;;;;;;;;;;20.74;56.80;101638.53;4995538;28;4053;-62
2023/08/11 03:31:07;;;;;;;;;;;;;;;20.74;56.68;101638.53;4997607;28;3980;-62
2023/08/11 03:33:38;;;;;;;;;;;;;;;20.73;56.82;101637.03;4997255;28;4186;-63
2023/08/11 03:36:09;;;;;;;;;;;;;;;20.73;56.80;101637.03;5012769;28;4476;-62
2023/08/11 03:38:36;;;;;;;;;;;;;;;20.73;56.59;101648.56;4997586;28;4181;-62
2023/08/11 03:41:02;;;;;;;;;;;;;;;20.73;56.82;101642.03;5004905;28;4182;-62
2023/08/11 03:43:29;;;;;;;;;;;;;;;20.74;56.81;101640.66;5001566;28;4109;-62
2023/08/11 03:45:56;;;;;;;;;;;;;;;20.72;56.50;101641.28;4997778;28;4157;-62
2023/08/11 03:48:22;;;;;;;;;;;;;;;20.74;56.62;101635.66;5010474;28;4162;-62
2023/08/11 03:50:49;;;;;;;;;;;;;;;20.72;56.65;101641.28;4999079;28;4131;-62
2023/08/11 03:53:15;;;;;;;;;;;;;;;20.72;56.60;101641.28;4996824;28;4188;-62
2023/08/11 03:55:42;;;;;;;;;;;;;;;20.72;56.69;101641.28;5004594;28;4137;-61
2023/08/11 03:58:09;;;;;;;;;;;;;;;20.72;56.80;101641.28;5012317;28;4872;-63
2023/08/11 04:00:36;;;;;;;;;;;;;;;20.71;56.66;101642.69;4998177;28;3955;-63
2023/08/11 04:03:10;;;;;;;;;;;;;;;20.72;56.59;101635.53;5012863;28;4372;-63
2023/08/11 04:05:36;;;;;;;;;;;;;;;20.72;56.80;101647.03;5016458;28;4192;-62
2023/08/11 04:08:06;;;;;;;;;;;;;;;20.71;56.78;101642.69;4996908;28;4535;-62
2023/08/11 04:10:32;;;;;;;;;;;;;;;20.71;56.82;101639.78;4997381;28;4080;-62
2023/08/11 04:12:59;;;;;;;;;;;;;;;20.72;56.64;101658.56;5012914;28;4163;-63
2023/08/11 04:15:25;;;;;;;;;;;;;;;20.71;56.80;101646.28;4998178;28;4255;-62
2023/08/11 04:17:52;;;;;;;;;;;;;;;20.71;56.81;101651.31;4998568;28;4234;-62
2023/08/11 04:20:19;;;;;;;;;;;;;;;20.71;56.80;101666.44;5012630;28;4146;-62
2023/08/11 04:22:45;;;;;;;;;;;;;;;20.71;56.80;101651.31;4998820;28;4279;-62
2023/08/11 04:25:11;;;;;;;;;;;;;;;20.71;56.68;101651.31;4997145;28;4259;-63
2023/08/11 04:27:41;;;;;;;;;;;;;;;20.71;56.71;101651.31;5002475;28;4154;-62
2023/08/11 04:30:08;;;;;;;;;;;;;;;20.70;56.83;101656.31;4997053;28;4137;-62
2023/08/11 04:32:36;;;;;;;;;;;;;;;20.70;56.86;101650.53;4996854;28;4331;-63
2023/08/11 04:35:07;;;;;;;;;;;;;;;20.71;56.85;101654.19;4996300;28;4346;-62
2023/08/11 04:37:36;;;;;;;;;;;;;;;20.70;56.76;101656.31;4997153;28;4133;-62
2023/08/11 04:40:08;;;;;;;;;;;;;;;20.70;56.90;101655.56;4996300;28;4102;-62
2023/08/11 04:42:35;;;;;;;;;;;;;;;20.68;56.80;101652.56;4997839;28;4224;-62
2023/08/11 04:45:01;;;;;;;;;;;;;;;20.70;56.76;101661.31;4995680;28;4329;-62
2023/08/11 04:47:28;;;;;;;;;;;;;;;20.68;56.86;101658.31;4997740;28;4446;-63
2023/08/11 04:49:56;;;;;;;;;;;;;;;20.68;56.81;101666.94;4996930;28;4328;-62
2023/08/11 04:52:22;;;;;;;;;;;;;;;20.69;56.80;101665.59;5010783;28;4056;-62
2023/08/11 04:54:49;;;;;;;;;;;;;;;20.68;56.97;101669.81;5016833;28;4524;-62
2023/08/11 04:57:15;;;;;;;;;;;;;;;20.68;56.82;101664.06;5010983;28;4128;-62
2023/08/11 04:59:42;;;;;;;;;;;;;;;20.68;56.92;101675.59;5011882;28;4166;-62
2023/08/11 05:02:08;;;;;;;;;;;;;;;20.67;56.78;101677.72;4997740;28;4284;-62
2023/08/11 05:04:35;;;;;;;;;;;;;;;20.68;56.77;101681.34;4996509;28;4194;-62
2023/08/11 05:07:01;;;;;;;;;;;;;;;20.68;56.84;101675.59;4996822;28;4212;-62
2023/08/11 05:09:28;;;;;;;;;;;;;;;20.68;56.93;101684.22;4998853;28;3959;-62
2023/08/11 05:11:54;;;;;;;;;;;;;;;20.68;56.89;101682.09;4995828;28;4266;-62
2023/08/11 05:14:20;;;;;;;;;;;;;;;20.67;56.85;101688.47;4999106;28;4061;-62
2023/08/11 05:16:47;;;;;;;;;;;;;;;20.68;56.89;101678.47;4995146;28;4156;-62
2023/08/11 05:19:13;;;;;;;;;;;;;;;20.68;56.83;101681.34;5000340;28;4195;-62
2023/08/11 05:21:40;;;;;;;;;;;;;;;20.68;56.86;101687.09;4995782;28;4197;-62
2023/08/11 05:24:06;;;;;;;;;;;;;;;20.66;56.85;101684.09;4997125;28;4114;-62
2023/08/11 05:26:33;;;;;;;;;;;;;;;20.67;56.82;101685.59;5015223;28;4021;-63
2023/08/11 05:28:59;;;;;;;;;;;;;;;20.67;56.87;101691.38;4997516;28;4207;-62
2023/08/11 05:31:25;;;;;;;;;;;;;;;20.67;56.89;101688.47;4996903;28;4096;-62
2023/08/11 05:33:52;;;;;;;;;;;;;;;20.67;56.78;101685.59;4996847;28;5066;-62
2023/08/11 05:36:18;;;;;;;;;;;;;;;20.67;56.87;101685.59;5001646;28;4254;-62
2023/08/11 05:38:45;;;;;;;;;;;;;;;20.67;56.89;101686.34;4996075;28;4227;-62
2023/08/11 05:41:11;;;;;;;;;;;;;;;20.67;56.89;101697.88;4997707;28;4051;-62
2023/08/11 05:43:38;;;;;;;;;;;;;;;20.67;56.58;101685.59;4996663;28;4172;-62
2023/08/11 05:46:07;;;;;;;;;;;;;;;20.66;56.95;101684.09;4997093;28;4224;-62
2023/08/11 05:48:35;;;;;;;;;;;;;;;20.66;56.68;101684.88;4997371;28;4155;-62
2023/08/11 05:51:02;;;;;;;;;;;;;;;20.67;56.95;101691.38;4997065;28;5071;-62
2023/08/11 05:53:28;;;;;;;;;;;;;;;20.67;56.95;101685.59;4998083;28;4329;-62
2023/08/11 05:55:55;;;;;;;;;;;;;;;20.66;56.91;101684.09;4995964;28;4176;-62
2023/08/11 05:58:21;;;;;;;;;;;;;;;20.66;56.72;101684.09;4998909;28;4368;-62
2023/08/11 06:00:48;;;;;;;;;;;;;;;20.66;56.92;101695.59;4997021;28;4155;-62
2023/08/11 06:03:17;;;;;;;;;;;;;;;20.66;57.01;101689.84;4996727;28;3940;-62
2023/08/11 06:05:44;;;;;;;;;;;;;;;20.66;57.01;101695.59;4994522;28;6354;-62
2023/08/11 06:08:10;;;;;;;;;;;;;;;20.49;57.82;101688.88;4996389;28;4186;-63
2023/08/11 06:10:37;;;;;;;;;;;;;;;20.15;60.08;101695.44;5002086;28;4162;-63
2023/08/11 06:13:03;;;;;;;;;;;;;;;20.01;61.02;101701.81;4997841;28;4154;-63
2023/08/11 06:15:30;;;;;;;;;;;;;;;19.86;60.82;101708.09;5000735;28;4804;-63
2023/08/11 06:17:56;;;;;;;;;;;;;;;19.83;61.25;101706.44;5002435;28;4497;-64
2023/08/11 06:20:23;;;;;;;;;;;;;;;19.77;61.83;101703.19;4996144;28;5156;-63
2023/08/11 06:23:06;;;;;;;;;;;;;;;19.64;62.83;101696.66;5000137;28;4162;-63
2023/08/11 06:25:32;;;;;;;;;;;;;;;19.63;62.72;101691.53;4997426;28;4125;-62
2023/08/11 06:27:59;;;;;;;;;;;;;;;19.64;63.29;101696.66;4996837;28;4336;-63
2023/08/11 06:30:28;;;;;;;;;;;;;;;19.63;63.06;101700.16;4997868;28;3956;-64
2023/08/11 06:32:55;;;;;;;;;;;;;;;19.62;63.36;101699.41;4998483;28;4132;-64
2023/08/11 06:35:22;;;;;;;;;;;;;;;19.65;63.29;101698.19;4997737;28;4169;-66
2023/08/11 06:37:48;;;;;;;;;;;;;;;19.89;62.18;101718.34;5010877;28;4208;-65
2023/08/11 06:40:15;;;;;;;;;;;;;;;20.12;61.16;101716.84;4997901;28;4207;-65
2023/08/11 06:42:42;;;;;;;;;;;;;;;20.22;60.60;101715.31;4995752;28;4145;-62
2023/08/11 06:45:11;;;;;;;;;;;;;;;20.32;60.44;101720.94;4997536;28;4040;-67
2023/08/11 06:47:38;;;;;;;;;;;;;;;20.36;60.27;101721.16;4999751;28;4219;-64
2023/08/11 06:50:04;;;;;;;;;;;;;;;20.44;60.02;101727.41;5002129;28;4242;-65
2023/08/11 06:52:31;;;;;;;;;;;;;;;20.44;59.99;101730.28;5001460;28;4226;-65
2023/08/11 06:54:57;;;;;;;;;;;;;;;20.45;59.83;101731.78;5005710;28;5331;-64
2023/08/11 06:57:24;;;;;;;;;;;;;;;20.47;59.96;101742.66;5005895;28;4000;-64
2023/08/11 06:59:50;;;;;;;;;;;;;;;20.47;59.79;101743.41;5004278;28;4205;-64
2023/08/11 07:02:17;;;;;;;;;;;;;;;20.48;59.48;101747.81;5003624;28;4123;-64
2023/08/11 07:04:43;;;;;;;;;;;;;;;20.49;59.41;101749.28;5002896;28;4206;-64
2023/08/11 07:07:10;;;;;;;;;;;;;;;20.50;59.43;101742.19;5003702;28;4141;-64
2023/08/11 07:09:36;;;;;;;;;;;;;;;20.51;59.15;101735.03;5004303;28;4144;-65
2023/08/11 07:12:03;;;;;;;;;;;;;;;20.52;59.15;101732.91;5002227;28;4178;-65
2023/08/11 07:14:29;;;;;;;;;;;;;;;20.54;59.22;101729.41;5003551;28;4167;-65
2023/08/11 07:16:56;;;;;;;;;;;;;;;20.55;59.08;101719.38;5005145;28;4191;-64
2023/08/11 07:19:22;;;;;;;;;;;;;;;20.56;59.18;101729.53;5001811;28;4180;-65
2023/08/11 07:21:48;;;;;;;;;;;;;;;20.56;59.14;101720.91;5007652;28;4198;-64
2023/08/11 07:24:15;;;;;;;;;;;;;;;20.57;59.12;101728.16;5003863;28;3995;-64
2023/08/11 07:26:42;;;;;;;;;;;;;;;20.58;58.82;101732.56;5006983;28;4025;-64
2023/08/11 07:29:08;;;;;;;;;;;;;;;20.59;59.00;101736.91;5005084;28;4314;-65
2023/08/11 07:31:35;;;;;;;;;;;;;;;20.59;58.71;101742.69;5010316;28;3994;-65
2023/08/11 07:34:01;;;;;;;;;;;;;;;20.60;59.02;101741.31;5003787;28;4092;-65
2023/08/11 07:36:27;;;;;;;;;;;;;;;20.60;58.75;101738.44;5005128;28;4064;-64
2023/08/11 07:38:54;;;;;;;;;;;;;;;20.61;58.85;101734.16;5002497;28;4252;-64
2023/08/11 07:41:34;;;;;;;;;;;;;;;20.61;58.84;101739.91;5004602;28;4077;-64
2023/08/11 07:44:00;;;;;;;;;;;;;;;20.61;58.68;101742.78;5008874;28;4192;-64
2023/08/11 07:46:27;;;;;;;;;;;;;;;20.62;58.75;101741.44;5006587;28;4362;-64
2023/08/11 07:48:53;;;;;;;;;;;;;;;20.62;58.72;101741.44;5004407;28;4192;-64
2023/08/11 07:51:20;;;;;;;;;;;;;;;20.62;58.74;101747.19;5004239;28;4049;-64
2023/08/11 07:53:46;;;;;;;;;;;;;;;20.62;58.55;101735.69;5005005;28;4102;-64
2023/08/11 07:56:12;;;;;;;;;;;;;;;20.62;58.69;101735.69;5001405;28;4070;-64
2023/08/11 07:58:39;;;;;;;;;;;;;;;20.63;58.61;101737.16;5001739;28;4069;-64
2023/08/11 08:01:06;;;;;;;;;;;;;;;20.64;58.40;101735.81;5002020;28;4094;-64
2023/08/11 08:03:32;;;;;;;;;;;;;;;20.64;58.53;101742.31;4998246;28;4033;-67
2023/08/11 08:05:59;;;;;;;;;;;;;;;20.67;58.30;101732.41;4995186;28;5118;-63
2023/08/11 08:08:26;;;;;;;;;;;;;;;20.68;58.25;101738.91;4996141;28;4238;-82
2023/08/11 08:10:52;;;;;;;;;;;;;;;20.68;58.49;101738.91;4997012;28;4065;-78
2023/08/11 08:13:19;;;;;;;;;;;;;;;20.73;58.52;101734.91;4999900;28;4122;-77
2023/08/11 08:15:45;;;;;;;;;;;;;;;20.70;58.46;101741.91;4996479;28;4297;-71
2023/08/11 08:18:11;;;;;;;;;;;;;;;20.83;58.28;101741.25;5002007;28;4170;-75
2023/08/11 08:20:38;;;;;;;;;;;;;;;20.78;58.32;101730.13;5000188;28;5323;-72
2023/08/11 08:23:04;;;;;;;;;;;;;;;20.82;58.15;101736.09;4999513;28;4852;-78
2023/08/11 08:25:31;;;;;;;;;;;;;;;20.82;58.26;101730.34;4999967;28;4370;-78
2023/08/11 08:27:57;;;;;;;;;;;;;;;20.82;58.69;101736.88;4999725;28;4556;-79
2023/08/11 08:30:31;;;;;;;;;;;;;;;20.86;58.63;101737.09;4999201;28;3990;-79
2023/08/11 08:32:58;;;;;;;;;;;;;;;20.86;58.31;101733.47;4995323;28;4166;-78
2023/08/11 08:35:24;;;;;;;;;;;;;;;20.86;58.72;101734.22;4996178;28;4165;-71
2023/08/11 08:37:50;;;;;;;;;;;;;;;20.88;58.90;101742.22;4996796;28;4048;-77
2023/08/11 08:40:17;;;;;;;;;;;;;;;20.90;59.00;101737.34;5003016;28;4164;-77
2023/08/11 08:42:44;;;;;;;;;;;;;;;20.89;58.95;101735.84;5003394;28;4062;-77
2023/08/11 08:45:10;;;;;;;;;;;;;;;20.91;58.82;101744.59;4997463;28;4174;-78
2023/08/11 08:47:37;;;;;;;;;;;;;;;20.90;58.84;101737.34;4996924;28;4257;-77
2023/08/11 08:50:03;;;;;;;;;;;;;;;20.91;58.77;101738.06;4997753;28;4180;-77
2023/08/11 08:52:30;;;;;;;;;;;;;;;20.91;58.56;101744.59;4996628;28;4083;-77
2023/08/11 08:54:57;;;;;;;;;;;;;;;20.91;58.86;101746.72;4994982;28;4059;-77
2023/08/11 08:57:25;;;;;;;;;;;;;;;20.92;58.41;101746.09;4999650;28;4029;-77
2023/08/11 08:59:51;;;;;;;;;;;;;;;20.92;58.95;101736.72;4996489;28;4064;-77
2023/08/11 09:02:18;;;;;;;;;;;;;;;20.96;58.86;101739.06;4998899;28;4113;-75
2023/08/11 09:04:45;;;;;;;;;;;;;;;20.97;58.60;101737.69;4993329;28;4210;-72
2023/08/11 09:07:12;;;;;;;;;;;;;;;20.95;58.51;101744.06;4995411;28;4137;-72
2023/08/11 09:09:38;;;;;;;;;;;;;;;20.93;58.52;101744.69;4995934;28;4175;-72
2023/08/11 09:12:05;;;;;;;;;;;;;;;20.97;58.17;101746.34;5001438;28;3943;-72
2023/08/11 09:14:31;;;;;;;;;;;;;;;20.92;58.65;101740.34;4996949;28;4180;-72
2023/08/11 09:16:58;;;;;;;;;;;;;;;20.96;58.48;101744.81;4998152;28;4202;-70
2023/08/11 09:19:24;;;;;;;;;;;;;;;20.99;58.14;101747.19;4996737;28;4120;-77
2023/08/11 09:21:50;;;;;;;;;;;;;;;20.96;58.47;101753.47;4994985;28;4153;-75
2023/08/11 09:24:17;;;;;;;;;;;;;;;20.97;58.16;101743.44;4998575;28;4387;-78
2023/08/11 09:26:49;;;;;;;;;;;;;;;20.96;58.03;101745.59;4998761;28;4094;-77
2023/08/11 09:29:19;;;;;;;;;;;;;;;20.97;57.99;101757.84;5003329;28;4143;-77
2023/08/11 09:31:49;;;;;;;;;;;;;;;20.95;58.23;101758.47;5001297;28;4029;-76
2023/08/11 09:34:16;;;;;;;;;;;;;;;20.95;58.18;101754.84;5002060;28;4115;-77
2023/08/11 09:36:43;;;;;;;;;;;;;;;20.96;57.95;101762.09;5002830;28;4336;-76
2023/08/11 09:39:10;;;;;;;;;;;;;;;20.97;58.12;101754.97;5002323;28;4474;-77
2023/08/11 09:41:40;;;;;;;;;;;;;;;20.98;58.01;101765.09;4999435;28;4118;-77
2023/08/11 09:44:06;;;;;;;;;;;;;;;20.97;57.87;101761.47;4999292;28;4138;-77
2023/08/11 09:46:35;;;;;;;;;;;;;;;20.97;58.09;101758.59;5004462;28;4181;-77
2023/08/11 09:49:01;;;;;;;;;;;;;;;20.98;57.93;101768.75;4999362;28;5839;-77
2023/08/11 09:51:28;;;;;;;;;;;;;;;20.96;58.10;101768.63;5006483;28;4032;-77
2023/08/11 09:53:55;;;;;;;;;;;;;;;20.97;57.92;101766.50;4999746;28;4236;-77
2023/08/11 09:56:21;;;;;;;;;;;;;;;20.97;57.91;101770.09;5000163;28;4125;-77
2023/08/11 09:58:49;;;;;;;;;;;;;;;20.98;58.12;101765.09;5000361;28;4128;-77
2023/08/11 10:01:17;;;;;;;;;;;;;;;20.97;57.93;101763.59;5018084;28;4617;-76
2023/08/11 10:03:47;;;;;;;;;;;;;;;20.98;57.77;101759.34;4999841;28;4004;-77
2023/08/11 10:06:16;;;;;;;;;;;;;;;20.98;58.06;101770.84;5002576;28;4108;-77
2023/08/11 10:08:42;;;;;;;;;;;;;;;20.98;58.05;101759.34;4999996;28;4636;-76
2023/08/11 10:11:09;;;;;;;;;;;;;;;21.00;57.88;101765.22;5000033;28;4111;-77
2023/08/11 10:13:37;;;;;;;;;;;;;;;20.99;57.83;101760.84;4999380;28;4009;-76
2023/08/11 10:16:04;;;;;;;;;;;;;;;21.00;58.07;101765.22;5001280;28;4136;-77
2023/08/11 10:18:31;;;;;;;;;;;;;;;20.99;57.86;101766.59;5007745;28;3950;-77
2023/08/11 10:20:57;;;;;;;;;;;;;;;21.00;58.10;101763.06;5013809;28;4098;-76
2023/08/11 10:23:24;;;;;;;;;;;;;;;21.01;57.90;101758.84;4999643;28;4148;-77
2023/08/11 10:25:50;;;;;;;;;;;;;;;20.99;57.90;101749.34;4998128;28;4117;-77
2023/08/11 10:28:17;;;;;;;;;;;;;;;21.01;58.01;101758.84;5009720;28;4212;-77
2023/08/11 10:30:43;;;;;;;;;;;;;;;21.00;57.84;101757.31;5002309;28;4200;-76
2023/08/11 10:33:09;;;;;;;;;;;;;;;21.01;57.97;101752.34;5000065;28;4313;-77
2023/08/11 10:35:45;;;;;;;;;;;;;;;21.01;57.89;101746.56;4999677;28;4079;-77
2023/08/11 10:38:11;;;;;;;;;;;;;;;21.01;57.84;101758.84;4998427;28;4125;-77
2023/08/11 10:40:38;;;;;;;;;;;;;;;21.03;58.07;101764.72;4998450;28;4197;-77
2023/08/11 10:43:04;;;;;;;;;;;;;;;21.03;57.91;101761.09;5001854;28;4096;-77
2023/08/11 10:45:31;;;;;;;;;;;;;;;21.02;57.89;101753.81;5000800;28;5108;-77
2023/08/11 10:47:58;;;;;;;;;;;;;;;21.03;57.83;101758.22;4997847;28;4164;-74
2023/08/11 10:50:25;;;;;;;;;;;;;;;21.03;57.95;101761.09;4998486;28;4213;-77
2023/08/11 10:53:10;;;;;;;;;;;;;;;21.03;57.82;101761.09;4998642;28;4101;-77
2023/08/11 10:55:37;;;;;;;;;;;;;;;21.04;57.77;101759.69;4997508;28;3967;-77
2023/08/11 10:58:12;;;;;;;;;;;;;;;21.03;57.77;101756.06;4996374;28;4049;-77
2023/08/11 11:00:39;;;;;;;;;;;;;;;21.04;58.03;101753.94;4998806;28;5004;-77
2023/08/11 11:03:06;;;;;;;;;;;;;;;21.04;57.76;101751.06;5010379;28;4145;-77
2023/08/11 11:05:33;;;;;;;;;;;;;;;21.04;57.93;101757.56;5006610;28;3990;-77
2023/08/11 11:07:59;;;;;;;;;;;;;;;21.04;57.59;101751.81;5005111;28;4181;-77
2023/08/11 11:10:25;;;;;;;;;;;;;;;21.04;57.96;101746.03;5008340;28;4501;-77
2023/08/11 11:13:12;;;;;;;;;;;;;;;21.06;57.82;101742.53;5004050;28;4087;-77
2023/08/11 11:15:38;;;;;;;;;;;;;;;21.06;57.92;101746.16;5007255;28;4153;-77
2023/08/11 11:18:05;;;;;;;;;;;;;;;21.06;57.80;101742.53;5002706;28;4197;-77
2023/08/11 11:20:31;;;;;;;;;;;;;;;21.06;57.77;101740.41;5014366;28;4131;-77
2023/08/11 11:22:58;;;;;;;;;;;;;;;21.07;58.07;101744.03;5005006;28;4143;-76
2023/08/11 11:25:24;;;;;;;;;;;;;;;21.07;58.02;101738.25;5014484;28;4175;-77
2023/08/11 11:27:50;;;;;;;;;;;;;;;21.08;57.91;101740.53;5006752;28;3987;-77
2023/08/11 11:30:18;;;;;;;;;;;;;;;21.10;57.92;101745.66;5005939;28;3957;-76
2023/08/11 11:32:44;;;;;;;;;;;;;;;21.10;57.85;101739.91;5004138;28;4801;-77
2023/08/11 11:35:11;;;;;;;;;;;;;;;21.10;58.00;101734.88;5012180;28;4039;-76
2023/08/11 11:37:37;;;;;;;;;;;;;;;21.10;57.74;101737.75;5007562;28;4188;-76
2023/08/11 11:40:07;;;;;;;;;;;;;;;21.10;57.69;101737.75;5002682;28;4006;-76
2023/08/11 11:42:34;;;;;;;;;;;;;;;21.12;57.86;101742.91;5000794;28;4165;-77
2023/08/11 11:45:00;;;;;;;;;;;;;;;21.11;57.76;101732.75;5001816;28;3980;-77
2023/08/11 11:47:29;;;;;;;;;;;;;;;21.14;57.94;101740.09;5003973;28;4084;-77
2023/08/11 11:49:56;;;;;;;;;;;;;;;21.15;57.80;101727.22;5007622;28;4148;-77
2023/08/11 11:52:23;;;;;;;;;;;;;;;21.15;58.06;101727.22;5004543;28;4149;-77
2023/08/11 11:54:50;;;;;;;;;;;;;;;21.16;57.80;101734.47;5005197;28;4159;-77
2023/08/11 11:57:16;;;;;;;;;;;;;;;21.15;57.97;101727.22;5005133;28;4018;-77
2023/08/11 11:59:42;;;;;;;;;;;;;;;21.15;57.81;101730.09;5002283;28;4004;-76
2023/08/11 12:02:10;;;;;;;;;;;;;;;21.17;57.94;101729.47;5021076;28;4130;-77
2023/08/11 12:04:39;;;;;;;;;;;;;;;21.16;57.98;101722.94;5002931;28;4216;-76
2023/08/11 12:07:07;;;;;;;;;;;;;;;21.17;57.79;101727.34;5002389;28;4394;-75
2023/08/11 12:09:52;;;;;;;;;;;;;;;21.17;57.88;101724.47;5005850;28;4050;-77
2023/08/11 12:12:19;;;;;;;;;;;;;;;21.19;58.26;101735.31;4996520;28;4094;-77
2023/08/11 12:14:45;;;;;;;;;;;;;;;21.18;57.91;101734.59;5007197;28;4145;-77
2023/08/11 12:17:12;;;;;;;;;;;;;;;21.17;58.08;101730.22;5005789;28;4117;-76
2023/08/11 12:19:38;;;;;;;;;;;;;;;21.18;58.05;101731.69;5004138;28;3998;-77
2023/08/11 12:22:05;;;;;;;;;;;;;;;21.20;58.17;101728.94;5002280;28;4331;-77
2023/08/11 12:24:31;;;;;;;;;;;;;;;21.18;58.42;101731.69;5005762;28;4276;-77
2023/08/11 12:26:57;;;;;;;;;;;;;;;21.19;58.53;101735.31;5001899;28;4178;-76
2023/08/11 12:29:24;;;;;;;;;;;;;;;21.17;58.29;101727.34;5002576;28;4262;-76
2023/08/11 12:31:50;;;;;;;;;;;;;;;21.17;58.41;101727.34;4999490;28;4099;-77
2023/08/11 12:34:17;;;;;;;;;;;;;;;21.18;58.55;101728.81;5001833;28;4154;-76
2023/08/11 12:36:43;;;;;;;;;;;;;;;21.18;58.64;101731.69;5004698;28;4131;-76
2023/08/11 12:39:10;;;;;;;;;;;;;;;21.20;58.42;101731.81;5007435;28;4068;-77
2023/08/11 12:41:38;;;;;;;;;;;;;;;21.23;58.77;101733.41;5003118;28;4007;-76
2023/08/11 12:44:05;;;;;;;;;;;;;;;21.23;58.50;101733.41;5004230;28;4176;-76
2023/08/11 12:46:31;;;;;;;;;;;;;;;21.24;58.47;101734.94;5001459;28;4133;-76
2023/08/11 12:48:58;;;;;;;;;;;;;;;21.25;58.47;101724.16;4999000;28;4121;-77